sensor_id;sensor_type;location;lat;lon;timestamp;pressure;altitude;pressure_sealevel;temperature;humidity
3748;BME280;1889;50.058;8.688;2023-04-21T00:00:17;99994.03;;;10.83;74.77
3748;BME280;1889;50.058;8.688;2023-04-21T00:02:46;99994.80;;;11.09;73.71
3748;BME280;1889;50.058;8.688;2023-04-21T00:05:16;99993.75;;;11.16;73.32
3748;BME280;1889;50.058;8.688;2023-04-21T00:07:46;99988.80;;;11.41;72.43
3748;BME280;1889;50.058;8.688;2023-04-21T00:10:15;99985.45;;;11.89;70.37
3748;BME280;1889;50.058;8.688;2023-04-21T00:12:44;99977.59;;;12.04;69.60
3748;BME280;1889;50.058;8.688;2023-04-21T00:15:14;99982.62;;;11.97;69.67
3748;BME280;1889;50.058;8.688;2023-04-21T00:17:43;99987.51;;;11.94;69.93
3748;BME280;1889;50.058;8.688;2023-04-21T00:20:13;99982.88;;;11.86;70.21
3748;BME280;1889;50.058;8.688;2023-04-21T00:22:42;99981.38;;;12.10;69.36
3748;BME280;1889;50.058;8.688;2023-04-21T00:25:12;99973.41;;;12.29;68.37
3748;BME280;1889;50.058;8.688;2023-04-21T00:27:42;99968.05;;;12.32;67.97
3748;BME280;1889;50.058;8.688;2023-04-21T00:30:11;99968.09;;;12.31;68.20
3748;BME280;1889;50.058;8.688;2023-04-21T00:32:41;99964.94;;;12.16;68.54
3748;BME280;1889;50.058;8.688;2023-04-21T00:35:10;99960.03;;;12.19;68.45
3748;BME280;1889;50.058;8.688;2023-04-21T00:37:40;99964.38;;;12.21;68.39
3748;BME280;1889;50.058;8.688;2023-04-21T00:40:09;99957.98;;;12.30;67.84
3748;BME280;1889;50.058;8.688;2023-04-21T00:42:39;99951.29;;;12.17;68.12
3748;BME280;1889;50.058;8.688;2023-04-21T00:45:08;99949.38;;;12.07;68.16
3748;BME280;1889;50.058;8.688;2023-04-21T00:47:38;99956.52;;;11.86;68.85
3748;BME280;1889;50.058;8.688;2023-04-21T00:50:08;99956.66;;;11.98;68.60
3748;BME280;1889;50.058;8.688;2023-04-21T00:52:41;99948.13;;;12.04;68.41
3748;BME280;1889;50.058;8.688;2023-04-21T00:55:11;99948.53;;;11.89;68.87
3748;BME280;1889;50.058;8.688;2023-04-21T00:57:41;99951.48;;;11.93;68.89
3748;BME280;1889;50.058;8.688;2023-04-21T01:00:13;99945.77;;;11.94;68.71
3748;BME280;1889;50.058;8.688;2023-04-21T01:02:43;99947.61;;;12.08;68.21
3748;BME280;1889;50.058;8.688;2023-04-21T01:05:13;99947.64;;;11.71;69.19
3748;BME280;1889;50.058;8.688;2023-04-21T01:07:44;99948.67;;;11.65;69.68
3748;BME280;1889;50.058;8.688;2023-04-21T01:10:13;99951.21;;;11.68;69.58
3748;BME280;1889;50.058;8.688;2023-04-21T01:12:43;99943.30;;;11.68;69.60
3748;BME280;1889;50.058;8.688;2023-04-21T01:15:15;99953.08;;;11.65;69.72
3748;BME280;1889;50.058;8.688;2023-04-21T01:17:45;99948.73;;;11.62;69.82
3748;BME280;1889;50.058;8.688;2023-04-21T01:20:16;99945.17;;;11.65;69.75
3748;BME280;1889;50.058;8.688;2023-04-21T01:22:46;99943.88;;;11.63;69.69
3748;BME280;1889;50.058;8.688;2023-04-21T01:25:17;99939.41;;;11.67;69.49
3748;BME280;1889;50.058;8.688;2023-04-21T01:27:48;99943.17;;;11.57;69.78
3748;BME280;1889;50.058;8.688;2023-04-21T01:30:17;99942.18;;;11.61;69.74
3748;BME280;1889;50.058;8.688;2023-04-21T01:32:46;99939.90;;;11.65;69.57
3748;BME280;1889;50.058;8.688;2023-04-21T01:35:16;99939.90;;;11.65;69.49
3748;BME280;1889;50.058;8.688;2023-04-21T01:37:45;99946.94;;;11.64;69.55
3748;BME280;1889;50.058;8.688;2023-04-21T01:40:14;99946.48;;;11.65;69.47
3748;BME280;1889;50.058;8.688;2023-04-21T01:42:44;99942.08;;;11.65;69.52
3748;BME280;1889;50.058;8.688;2023-04-21T01:45:13;99946.81;;;11.69;69.51
3748;BME280;1889;50.058;8.688;2023-04-21T01:47:43;99949.54;;;11.66;69.60
3748;BME280;1889;50.058;8.688;2023-04-21T01:50:12;99952.54;;;11.33;70.13
3748;BME280;1889;50.058;8.688;2023-04-21T01:52:41;99953.64;;;11.42;70.14
3748;BME280;1889;50.058;8.688;2023-04-21T01:55:11;99954.80;;;11.48;69.98
3748;BME280;1889;50.058;8.688;2023-04-21T01:57:40;99949.42;;;11.35;70.09
3748;BME280;1889;50.058;8.688;2023-04-21T02:00:10;99950.11;;;11.43;69.87
3748;BME280;1889;50.058;8.688;2023-04-21T02:02:40;99947.32;;;11.49;69.65
3748;BME280;1889;50.058;8.688;2023-04-21T02:05:09;99947.77;;;11.48;69.65
3748;BME280;1889;50.058;8.688;2023-04-21T02:07:38;99952.39;;;11.39;69.76
3748;BME280;1889;50.058;8.688;2023-04-21T02:10:08;99955.69;;;11.29;69.87
3748;BME280;1889;50.058;8.688;2023-04-21T02:12:37;99954.66;;;11.17;70.28
3748;BME280;1889;50.058;8.688;2023-04-21T02:15:07;99956.46;;;11.15;70.39
3748;BME280;1889;50.058;8.688;2023-04-21T02:17:37;99955.05;;;11.00;70.75
3748;BME280;1889;50.058;8.688;2023-04-21T02:20:07;99953.23;;;11.22;70.38
3748;BME280;1889;50.058;8.688;2023-04-21T02:22:37;99961.41;;;11.29;70.05
3748;BME280;1889;50.058;8.688;2023-04-21T02:25:08;99964.75;;;11.35;69.82
3748;BME280;1889;50.058;8.688;2023-04-21T02:27:37;99961.73;;;11.34;69.78
3748;BME280;1889;50.058;8.688;2023-04-21T02:30:07;99958.97;;;11.20;70.07
3748;BME280;1889;50.058;8.688;2023-04-21T02:32:56;99961.77;;;10.94;70.74
3748;BME280;1889;50.058;8.688;2023-04-21T02:35:25;99956.69;;;11.04;70.70
3748;BME280;1889;50.058;8.688;2023-04-21T02:37:55;99961.22;;;11.19;70.26
3748;BME280;1889;50.058;8.688;2023-04-21T02:40:24;99961.38;;;11.30;69.78
3748;BME280;1889;50.058;8.688;2023-04-21T02:42:54;99958.34;;;11.28;69.60
3748;BME280;1889;50.058;8.688;2023-04-21T02:45:23;99960.66;;;11.24;69.69
3748;BME280;1889;50.058;8.688;2023-04-21T02:47:52;99962.30;;;11.28;69.69
3748;BME280;1889;50.058;8.688;2023-04-21T02:50:22;99962.98;;;11.36;69.46
3748;BME280;1889;50.058;8.688;2023-04-21T02:52:51;99959.99;;;11.33;69.45
3748;BME280;1889;50.058;8.688;2023-04-21T02:55:21;99962.42;;;11.42;69.16
3748;BME280;1889;50.058;8.688;2023-04-21T02:57:50;99962.86;;;11.42;69.08
3748;BME280;1889;50.058;8.688;2023-04-21T03:00:19;99960.11;;;11.46;69.04
3748;BME280;1889;50.058;8.688;2023-04-21T03:02:49;99957.86;;;11.49;69.01
3748;BME280;1889;50.058;8.688;2023-04-21T03:05:20;99961.63;;;11.57;68.80
3748;BME280;1889;50.058;8.688;2023-04-21T03:07:49;99954.04;;;11.61;68.77
3748;BME280;1889;50.058;8.688;2023-04-21T03:10:19;99949.89;;;11.68;68.65
3748;BME280;1889;50.058;8.688;2023-04-21T03:12:48;99955.87;;;11.76;68.56
3748;BME280;1889;50.058;8.688;2023-04-21T03:15:17;99957.13;;;11.79;68.48
3748;BME280;1889;50.058;8.688;2023-04-21T03:17:47;99961.56;;;11.77;68.52
3748;BME280;1889;50.058;8.688;2023-04-21T03:20:16;99963.97;;;11.87;68.28
3748;BME280;1889;50.058;8.688;2023-04-21T03:22:46;99963.91;;;11.70;68.81
3748;BME280;1889;50.058;8.688;2023-04-21T03:25:15;99967.55;;;11.66;69.00
3748;BME280;1889;50.058;8.688;2023-04-21T03:27:44;99972.30;;;11.88;68.52
3748;BME280;1889;50.058;8.688;2023-04-21T03:30:14;99972.02;;;11.82;68.47
3748;BME280;1889;50.058;8.688;2023-04-21T03:32:43;99973.81;;;11.80;68.66
3748;BME280;1889;50.058;8.688;2023-04-21T03:35:13;99964.39;;;11.68;69.26
3748;BME280;1889;50.058;8.688;2023-04-21T03:37:42;99967.38;;;11.72;69.17
3748;BME280;1889;50.058;8.688;2023-04-21T03:40:11;99963.23;;;11.62;69.84
3748;BME280;1889;50.058;8.688;2023-04-21T03:42:41;99965.33;;;11.67;69.61
3748;BME280;1889;50.058;8.688;2023-04-21T03:45:10;99965.29;;;11.87;68.91
3748;BME280;1889;50.058;8.688;2023-04-21T03:47:40;99957.06;;;11.82;68.74
3748;BME280;1889;50.058;8.688;2023-04-21T03:50:09;99956.89;;;11.89;68.78
3748;BME280;1889;50.058;8.688;2023-04-21T03:52:38;99959.15;;;11.86;68.80
3748;BME280;1889;50.058;8.688;2023-04-21T03:55:08;99957.08;;;11.99;68.38
3748;BME280;1889;50.058;8.688;2023-04-21T03:57:39;99951.03;;;11.94;68.57
3748;BME280;1889;50.058;8.688;2023-04-21T04:00:10;99951.59;;;11.90;68.77
3748;BME280;1889;50.058;8.688;2023-04-21T04:02:40;99953.33;;;11.91;68.82
3748;BME280;1889;50.058;8.688;2023-04-21T04:05:10;99959.30;;;11.98;68.82
3748;BME280;1889;50.058;8.688;2023-04-21T04:07:40;99962.80;;;11.98;68.73
3748;BME280;1889;50.058;8.688;2023-04-21T04:10:09;99962.25;;;12.02;68.48
3748;BME280;1889;50.058;8.688;2023-04-21T04:12:39;99954.44;;;11.99;68.41
3748;BME280;1889;50.058;8.688;2023-04-21T04:15:08;99962.48;;;11.93;68.47
3748;BME280;1889;50.058;8.688;2023-04-21T04:17:38;99965.34;;;12.01;68.22
3748;BME280;1889;50.058;8.688;2023-04-21T04:20:07;99968.89;;;11.65;69.61
3748;BME280;1889;50.058;8.688;2023-04-21T04:22:37;99962.66;;;11.87;68.85
3748;BME280;1889;50.058;8.688;2023-04-21T04:25:06;99960.18;;;11.80;68.82
3748;BME280;1889;50.058;8.688;2023-04-21T04:27:36;99956.93;;;11.87;68.81
3748;BME280;1889;50.058;8.688;2023-04-21T04:30:07;99953.52;;;11.83;69.02
3748;BME280;1889;50.058;8.688;2023-04-21T04:32:42;99956.77;;;11.58;69.86
3748;BME280;1889;50.058;8.688;2023-04-21T04:35:11;99953.40;;;11.69;69.63
3748;BME280;1889;50.058;8.688;2023-04-21T04:37:41;99962.20;;;11.68;69.58
3748;BME280;1889;50.058;8.688;2023-04-21T04:40:11;99949.80;;;11.73;69.35
3748;BME280;1889;50.058;8.688;2023-04-21T04:42:40;99953.37;;;11.70;69.50
3748;BME280;1889;50.058;8.688;2023-04-21T04:45:11;99950.66;;;11.73;69.24
3748;BME280;1889;50.058;8.688;2023-04-21T04:47:41;99942.34;;;11.72;69.36
3748;BME280;1889;50.058;8.688;2023-04-21T04:50:10;99938.72;;;11.94;68.59
3748;BME280;1889;50.058;8.688;2023-04-21T04:52:39;99940.17;;;11.90;68.73
3748;BME280;1889;50.058;8.688;2023-04-21T04:55:09;99936.42;;;11.82;68.91
3748;BME280;1889;50.058;8.688;2023-04-21T04:57:38;99937.94;;;11.74;69.12
3748;BME280;1889;50.058;8.688;2023-04-21T05:00:08;99943.01;;;11.82;68.99
3748;BME280;1889;50.058;8.688;2023-04-21T05:02:38;99949.47;;;11.87;68.85
3748;BME280;1889;50.058;8.688;2023-04-21T05:05:08;99951.86;;;11.79;69.11
3748;BME280;1889;50.058;8.688;2023-04-21T05:07:37;99950.60;;;11.76;69.25
3748;BME280;1889;50.058;8.688;2023-04-21T05:10:07;99949.30;;;11.93;68.59
3748;BME280;1889;50.058;8.688;2023-04-21T05:12:36;99941.31;;;11.79;68.93
3748;BME280;1889;50.058;8.688;2023-04-21T05:15:06;99943.05;;;11.80;68.97
3748;BME280;1889;50.058;8.688;2023-04-21T05:17:35;99951.72;;;11.48;70.51
3748;BME280;1889;50.058;8.688;2023-04-21T05:20:13;99955.20;;;11.31;71.62
3748;BME280;1889;50.058;8.688;2023-04-21T05:22:43;99953.17;;;11.60;70.79
3748;BME280;1889;50.058;8.688;2023-04-21T05:25:12;99944.46;;;11.76;70.14
3748;BME280;1889;50.058;8.688;2023-04-21T05:27:44;99945.04;;;11.69;70.23
3748;BME280;1889;50.058;8.688;2023-04-21T05:30:13;99949.58;;;11.64;70.53
3748;BME280;1889;50.058;8.688;2023-04-21T05:32:43;99952.08;;;11.69;70.54
3748;BME280;1889;50.058;8.688;2023-04-21T05:35:12;99947.77;;;11.84;69.83
3748;BME280;1889;50.058;8.688;2023-04-21T05:37:41;99951.14;;;11.91;69.70
3748;BME280;1889;50.058;8.688;2023-04-21T05:40:11;99952.00;;;11.91;69.71
3748;BME280;1889;50.058;8.688;2023-04-21T05:42:40;99959.66;;;12.16;68.64
3748;BME280;1889;50.058;8.688;2023-04-21T05:45:09;99958.21;;;11.89;69.60
3748;BME280;1889;50.058;8.688;2023-04-21T05:47:39;99953.52;;;11.83;69.87
3748;BME280;1889;50.058;8.688;2023-04-21T05:50:08;99952.12;;;12.03;69.28
3748;BME280;1889;50.058;8.688;2023-04-21T05:52:38;99951.03;;;11.94;69.58
3748;BME280;1889;50.058;8.688;2023-04-21T05:55:07;99956.87;;;11.53;71.52
3748;BME280;1889;50.058;8.688;2023-04-21T05:57:36;99956.13;;;11.48;72.11
3748;BME280;1889;50.058;8.688;2023-04-21T06:00:07;99964.30;;;11.36;73.14
3748;BME280;1889;50.058;8.688;2023-04-21T06:02:36;99962.02;;;11.77;71.80
3748;BME280;1889;50.058;8.688;2023-04-21T06:05:05;99962.59;;;11.70;72.11
3748;BME280;1889;50.058;8.688;2023-04-21T06:07:35;99957.93;;;11.83;71.59
3748;BME280;1889;50.058;8.688;2023-04-21T06:10:05;99961.78;;;11.86;71.63
3748;BME280;1889;50.058;8.688;2023-04-21T06:12:35;99953.67;;;11.94;71.64
3748;BME280;1889;50.058;8.688;2023-04-21T06:15:05;99948.61;;;12.18;71.13
3748;BME280;1889;50.058;8.688;2023-04-21T06:17:34;99952.53;;;12.36;70.47
3748;BME280;1889;50.058;8.688;2023-04-21T06:20:04;99953.19;;;12.28;70.65
3748;BME280;1889;50.058;8.688;2023-04-21T06:22:34;99955.34;;;12.30;70.83
3748;BME280;1889;50.058;8.688;2023-04-21T06:25:04;99947.03;;;12.44;70.45
3748;BME280;1889;50.058;8.688;2023-04-21T06:27:33;99943.61;;;12.56;70.06
3748;BME280;1889;50.058;8.688;2023-04-21T06:30:03;99943.16;;;12.72;69.44
3748;BME280;1889;50.058;8.688;2023-04-21T06:32:33;99948.89;;;12.56;70.03
3748;BME280;1889;50.058;8.688;2023-04-21T06:35:05;99949.06;;;12.18;71.80
3748;BME280;1889;50.058;8.688;2023-04-21T06:37:36;99956.45;;;12.21;72.28
3748;BME280;1889;50.058;8.688;2023-04-21T06:40:06;99954.68;;;12.38;71.48
3748;BME280;1889;50.058;8.688;2023-04-21T06:42:35;99955.44;;;12.42;71.73
3748;BME280;1889;50.058;8.688;2023-04-21T06:45:05;99960.12;;;12.48;71.08
3748;BME280;1889;50.058;8.688;2023-04-21T06:47:35;99964.89;;;12.65;70.56
3748;BME280;1889;50.058;8.688;2023-04-21T06:50:07;99958.92;;;12.58;70.90
3748;BME280;1889;50.058;8.688;2023-04-21T06:52:38;99960.27;;;12.42;72.03
3748;BME280;1889;50.058;8.688;2023-04-21T06:55:08;99958.13;;;12.56;72.04
3748;BME280;1889;50.058;8.688;2023-04-21T06:57:37;99957.91;;;12.64;72.51
3748;BME280;1889;50.058;8.688;2023-04-21T07:00:07;99958.44;;;12.75;72.40
3748;BME280;1889;50.058;8.688;2023-04-21T07:02:37;99960.16;;;13.06;71.22
3748;BME280;1889;50.058;8.688;2023-04-21T07:05:06;99944.46;;;13.01;71.18
3748;BME280;1889;50.058;8.688;2023-04-21T07:07:36;99952.94;;;13.12;71.20
3748;BME280;1889;50.058;8.688;2023-04-21T07:10:06;99964.68;;;13.31;70.83
3748;BME280;1889;50.058;8.688;2023-04-21T07:12:35;99968.94;;;13.50;70.16
3748;BME280;1889;50.058;8.688;2023-04-21T07:15:06;99960.59;;;13.62;69.64
3748;BME280;1889;50.058;8.688;2023-04-21T07:17:35;99960.34;;;13.57;69.74
3748;BME280;1889;50.058;8.688;2023-04-21T07:20:05;99965.34;;;13.53;70.23
3748;BME280;1889;50.058;8.688;2023-04-21T07:22:35;99961.16;;;13.59;70.18
3748;BME280;1889;50.058;8.688;2023-04-21T07:25:05;99967.41;;;13.56;70.41
3748;BME280;1889;50.058;8.688;2023-04-21T07:27:35;99965.79;;;13.65;70.05
3748;BME280;1889;50.058;8.688;2023-04-21T07:30:05;99963.19;;;13.38;70.68
3748;BME280;1889;50.058;8.688;2023-04-21T07:32:34;99961.70;;;13.42;70.90
3748;BME280;1889;50.058;8.688;2023-04-21T07:35:06;99961.91;;;13.62;70.61
3748;BME280;1889;50.058;8.688;2023-04-21T07:37:35;99961.35;;;13.79;70.56
3748;BME280;1889;50.058;8.688;2023-04-21T07:40:06;99951.09;;;13.57;71.25
3748;BME280;1889;50.058;8.688;2023-04-21T07:42:36;99953.73;;;13.83;70.57
3748;BME280;1889;50.058;8.688;2023-04-21T07:45:06;99956.72;;;13.99;69.92
3748;BME280;1889;50.058;8.688;2023-04-21T07:47:35;99962.91;;;14.11;69.57
3748;BME280;1889;50.058;8.688;2023-04-21T07:50:05;99956.67;;;13.87;70.38
3748;BME280;1889;50.058;8.688;2023-04-21T07:52:35;99950.66;;;13.95;69.95
3748;BME280;1889;50.058;8.688;2023-04-21T07:55:04;99957.18;;;13.98;70.12
3748;BME280;1889;50.058;8.688;2023-04-21T07:57:34;99959.80;;;14.11;69.26
3748;BME280;1889;50.058;8.688;2023-04-21T08:00:05;99958.42;;;14.13;68.79
3748;BME280;1889;50.058;8.688;2023-04-21T08:02:35;99953.67;;;13.71;69.45
3748;BME280;1889;50.058;8.688;2023-04-21T08:05:05;99948.96;;;13.94;69.55
3748;BME280;1889;50.058;8.688;2023-04-21T08:07:34;99943.09;;;13.71;69.92
3748;BME280;1889;50.058;8.688;2023-04-21T08:10:05;99942.53;;;14.01;69.55
3748;BME280;1889;50.058;8.688;2023-04-21T08:12:34;99929.02;;;13.58;70.98
3748;BME280;1889;50.058;8.688;2023-04-21T08:15:04;99938.84;;;13.67;71.39
3748;BME280;1889;50.058;8.688;2023-04-21T08:17:35;99945.51;;;14.04;70.54
3748;BME280;1889;50.058;8.688;2023-04-21T08:20:05;99946.50;;;14.01;69.61
3748;BME280;1889;50.058;8.688;2023-04-21T08:22:35;99946.91;;;14.02;68.89
3748;BME280;1889;50.058;8.688;2023-04-21T08:25:05;99953.65;;;13.86;69.91
3748;BME280;1889;50.058;8.688;2023-04-21T08:27:36;99953.39;;;13.94;68.96
3748;BME280;1889;50.058;8.688;2023-04-21T08:30:07;99954.55;;;13.46;70.47
3748;BME280;1889;50.058;8.688;2023-04-21T08:32:36;99952.81;;;13.58;71.25
3748;BME280;1889;50.058;8.688;2023-04-21T08:35:06;99944.38;;;13.73;71.24
3748;BME280;1889;50.058;8.688;2023-04-21T08:37:37;99945.70;;;13.73;71.13
3748;BME280;1889;50.058;8.688;2023-04-21T08:40:07;99942.99;;;13.35;71.32
3748;BME280;1889;50.058;8.688;2023-04-21T08:42:37;99941.21;;;13.06;72.57
3748;BME280;1889;50.058;8.688;2023-04-21T08:45:07;99939.75;;;13.66;72.20
3748;BME280;1889;50.058;8.688;2023-04-21T08:47:39;99939.98;;;13.98;71.61
3748;BME280;1889;50.058;8.688;2023-04-21T08:50:11;99943.30;;;14.43;69.67
3748;BME280;1889;50.058;8.688;2023-04-21T08:52:40;99934.12;;;14.51;69.19
3748;BME280;1889;50.058;8.688;2023-04-21T08:55:10;99938.16;;;14.25;68.57
3748;BME280;1889;50.058;8.688;2023-04-21T08:57:40;99934.05;;;14.17;69.76
3748;BME280;1889;50.058;8.688;2023-04-21T09:00:11;99941.81;;;13.96;71.69
3748;BME280;1889;50.058;8.688;2023-04-21T09:02:59;99937.59;;;14.42;70.12
3748;BME280;1889;50.058;8.688;2023-04-21T09:05:31;99936.44;;;14.49;69.09
3748;BME280;1889;50.058;8.688;2023-04-21T09:08:11;99933.09;;;14.06;68.97
3748;BME280;1889;50.058;8.688;2023-04-21T09:10:47;99932.28;;;14.29;69.32
3748;BME280;1889;50.058;8.688;2023-04-21T09:13:17;99924.97;;;14.60;68.70
3748;BME280;1889;50.058;8.688;2023-04-21T09:15:49;99918.55;;;14.67;68.05
3748;BME280;1889;50.058;8.688;2023-04-21T09:18:22;99928.88;;;14.97;68.05
3748;BME280;1889;50.058;8.688;2023-04-21T09:21:09;99930.31;;;14.94;68.23
3748;BME280;1889;50.058;8.688;2023-04-21T09:23:49;99931.42;;;14.88;67.93
3748;BME280;1889;50.058;8.688;2023-04-21T09:26:15;99933.67;;;14.99;67.90
3748;BME280;1889;50.058;8.688;2023-04-21T09:28:47;99934.39;;;15.14;67.66
3748;BME280;1889;50.058;8.688;2023-04-21T09:31:18;99934.09;;;15.10;67.65
3748;BME280;1889;50.058;8.688;2023-04-21T09:33:50;99940.76;;;15.32;66.93
3748;BME280;1889;50.058;8.688;2023-04-21T09:36:22;99942.75;;;15.37;66.98
3748;BME280;1889;50.058;8.688;2023-04-21T09:38:59;99943.56;;;15.39;66.48
3748;BME280;1889;50.058;8.688;2023-04-21T09:41:30;99941.59;;;15.10;66.42
3748;BME280;1889;50.058;8.688;2023-04-21T09:44:00;99949.08;;;15.22;66.78
3748;BME280;1889;50.058;8.688;2023-04-21T09:46:35;99935.00;;;14.99;67.36
3748;BME280;1889;50.058;8.688;2023-04-21T09:49:05;99939.20;;;15.26;66.60
3748;BME280;1889;50.058;8.688;2023-04-21T09:51:34;99939.07;;;15.51;66.21
3748;BME280;1889;50.058;8.688;2023-04-21T09:54:15;99945.20;;;15.31;66.82
3748;BME280;1889;50.058;8.688;2023-04-21T09:56:38;99937.23;;;15.53;66.06
3748;BME280;1889;50.058;8.688;2023-04-21T09:59:11;99944.08;;;15.37;66.86
3748;BME280;1889;50.058;8.688;2023-04-21T10:01:41;99936.83;;;15.63;66.48
3748;BME280;1889;50.058;8.688;2023-04-21T10:04:12;99937.87;;;15.26;67.47
3748;BME280;1889;50.058;8.688;2023-04-21T10:06:41;99924.55;;;15.81;65.98
3748;BME280;1889;50.058;8.688;2023-04-21T10:09:11;99928.75;;;16.07;65.21
3748;BME280;1889;50.058;8.688;2023-04-21T10:11:41;99917.41;;;15.83;65.64
3748;BME280;1889;50.058;8.688;2023-04-21T10:14:10;99919.86;;;16.08;65.43
3748;BME280;1889;50.058;8.688;2023-04-21T10:16:40;99916.71;;;16.39;64.47
3748;BME280;1889;50.058;8.688;2023-04-21T10:19:23;99907.70;;;16.33;64.81
3748;BME280;1889;50.058;8.688;2023-04-21T10:21:56;99906.53;;;16.59;63.04
3748;BME280;1889;50.058;8.688;2023-04-21T10:24:29;99903.30;;;16.42;63.30
3748;BME280;1889;50.058;8.688;2023-04-21T10:26:59;99905.05;;;16.23;63.38
3748;BME280;1889;50.058;8.688;2023-04-21T10:29:32;99890.98;;;15.90;64.42
3748;BME280;1889;50.058;8.688;2023-04-21T10:32:02;99895.80;;;16.41;63.71
3748;BME280;1889;50.058;8.688;2023-04-21T10:34:38;99892.80;;;16.39;63.47
3748;BME280;1889;50.058;8.688;2023-04-21T10:37:10;99888.68;;;16.52;63.42
3748;BME280;1889;50.058;8.688;2023-04-21T10:39:44;99888.94;;;16.46;62.90
3748;BME280;1889;50.058;8.688;2023-04-21T10:42:24;99891.61;;;15.87;65.78
3748;BME280;1889;50.058;8.688;2023-04-21T10:47:40;99893.31;;;16.67;63.68
3748;BME280;1889;50.058;8.688;2023-04-21T10:50:15;99893.83;;;16.36;63.38
3748;BME280;1889;50.058;8.688;2023-04-21T10:55:35;99889.56;;;16.71;62.32
3748;BME280;1889;50.058;8.688;2023-04-21T10:58:06;99889.20;;;16.79;62.20
3748;BME280;1889;50.058;8.688;2023-04-21T11:00:39;99882.03;;;16.52;63.37
3748;BME280;1889;50.058;8.688;2023-04-21T11:03:08;99887.55;;;16.95;62.56
3748;BME280;1889;50.058;8.688;2023-04-21T11:05:39;99881.63;;;16.99;62.06
3748;BME280;1889;50.058;8.688;2023-04-21T11:08:13;99877.97;;;17.01;61.41
3748;BME280;1889;50.058;8.688;2023-04-21T11:10:48;99873.91;;;17.11;61.49
3748;BME280;1889;50.058;8.688;2023-04-21T11:13:26;99872.86;;;16.97;61.53
3748;BME280;1889;50.058;8.688;2023-04-21T11:16:02;99869.99;;;16.64;62.14
3748;BME280;1889;50.058;8.688;2023-04-21T11:18:43;99866.40;;;16.55;61.64
3748;BME280;1889;50.058;8.688;2023-04-21T11:21:14;99866.40;;;16.55;61.64
3748;BME280;1889;50.058;8.688;2023-04-21T11:23:53;99868.94;;;17.23;60.46
3748;BME280;1889;50.058;8.688;2023-04-21T11:26:35;99862.09;;;17.53;59.77
3748;BME280;1889;50.058;8.688;2023-04-21T11:29:06;99861.48;;;17.57;59.82
3748;BME280;1889;50.058;8.688;2023-04-21T11:31:37;99863.16;;;17.23;60.96
3748;BME280;1889;50.058;8.688;2023-04-21T11:34:07;99862.69;;;17.24;60.08
3748;BME280;1889;50.058;8.688;2023-04-21T11:36:38;99865.66;;;17.18;60.20
3748;BME280;1889;50.058;8.688;2023-04-21T11:39:16;99860.28;;;17.45;59.26
3748;BME280;1889;50.058;8.688;2023-04-21T11:41:43;99856.04;;;17.24;58.98
3748;BME280;1889;50.058;8.688;2023-04-21T11:44:16;99853.69;;;16.90;59.86
3748;BME280;1889;50.058;8.688;2023-04-21T11:46:45;99849.33;;;16.98;59.85
3748;BME280;1889;50.058;8.688;2023-04-21T11:49:15;99841.50;;;16.67;60.78
3748;BME280;1889;50.058;8.688;2023-04-21T11:51:45;99845.50;;;17.03;59.80
3748;BME280;1889;50.058;8.688;2023-04-21T11:54:16;99841.95;;;17.22;58.78
3748;BME280;1889;50.058;8.688;2023-04-21T11:56:48;99845.27;;;17.27;58.89
3748;BME280;1889;50.058;8.688;2023-04-21T11:59:18;99841.44;;;17.41;58.47
3748;BME280;1889;50.058;8.688;2023-04-21T12:01:52;99839.11;;;17.78;58.09
3748;BME280;1889;50.058;8.688;2023-04-21T12:04:23;99834.06;;;18.15;57.06
3748;BME280;1889;50.058;8.688;2023-04-21T12:06:58;99828.39;;;18.21;56.86
3748;BME280;1889;50.058;8.688;2023-04-21T12:09:34;99826.41;;;18.57;55.98
3748;BME280;1889;50.058;8.688;2023-04-21T12:12:23;99815.98;;;18.77;55.36
3748;BME280;1889;50.058;8.688;2023-04-21T12:14:53;99817.41;;;18.98;54.65
3748;BME280;1889;50.058;8.688;2023-04-21T12:17:22;99816.86;;;19.23;54.56
3748;BME280;1889;50.058;8.688;2023-04-21T12:19:52;99808.81;;;19.39;54.20
3748;BME280;1889;50.058;8.688;2023-04-21T12:22:21;99810.34;;;19.52;53.12
3748;BME280;1889;50.058;8.688;2023-04-21T12:24:50;99807.31;;;19.12;52.66
3748;BME280;1889;50.058;8.688;2023-04-21T12:27:20;99815.81;;;19.19;53.15
3748;BME280;1889;50.058;8.688;2023-04-21T12:29:49;99815.59;;;18.76;53.97
3748;BME280;1889;50.058;8.688;2023-04-21T12:32:19;99810.92;;;19.11;52.85
3748;BME280;1889;50.058;8.688;2023-04-21T12:34:50;99810.92;;;19.11;52.85
3748;BME280;1889;50.058;8.688;2023-04-21T12:37:19;99802.05;;;19.63;52.37
3748;BME280;1889;50.058;8.688;2023-04-21T12:39:48;99802.05;;;19.63;52.37
3748;BME280;1889;50.058;8.688;2023-04-21T12:42:18;99796.82;;;19.46;52.02
3748;BME280;1889;50.058;8.688;2023-04-21T12:44:47;99789.16;;;19.56;51.89
3748;BME280;1889;50.058;8.688;2023-04-21T12:47:17;99788.81;;;19.62;51.41
3748;BME280;1889;50.058;8.688;2023-04-21T12:49:46;99782.79;;;19.58;52.31
3748;BME280;1889;50.058;8.688;2023-04-21T12:52:15;99782.79;;;19.58;52.31
3748;BME280;1889;50.058;8.688;2023-04-21T12:54:45;99785.88;;;19.88;50.43
3748;BME280;1889;50.058;8.688;2023-04-21T12:57:14;99781.53;;;19.27;50.13
3748;BME280;1889;50.058;8.688;2023-04-21T12:59:44;99781.98;;;19.19;51.52
3748;BME280;1889;50.058;8.688;2023-04-21T13:02:13;99775.78;;;19.19;52.12
3748;BME280;1889;50.058;8.688;2023-04-21T13:04:42;99775.78;;;19.19;52.12
3748;BME280;1889;50.058;8.688;2023-04-21T13:07:11;99768.75;;;19.55;51.40
3748;BME280;1889;50.058;8.688;2023-04-21T13:09:41;99766.59;;;19.61;50.16
3748;BME280;1889;50.058;8.688;2023-04-21T13:12:11;99758.50;;;19.70;50.70
3748;BME280;1889;50.058;8.688;2023-04-21T13:14:40;99758.50;;;19.70;50.70
3748;BME280;1889;50.058;8.688;2023-04-21T13:17:09;99751.27;;;19.86;50.01
3748;BME280;1889;50.058;8.688;2023-04-21T13:19:39;99751.27;;;19.86;50.01
3748;BME280;1889;50.058;8.688;2023-04-21T13:22:08;99753.59;;;19.62;50.70
3748;BME280;1889;50.058;8.688;2023-04-21T13:24:37;99739.34;;;19.85;50.24
3748;BME280;1889;50.058;8.688;2023-04-21T13:27:06;99736.96;;;19.94;49.28
3748;BME280;1889;50.058;8.688;2023-04-21T13:29:35;99736.96;;;19.94;49.28
3748;BME280;1889;50.058;8.688;2023-04-21T13:32:05;99731.03;;;19.75;49.53
3748;BME280;1889;50.058;8.688;2023-04-21T13:34:34;99721.08;;;19.63;49.69
3748;BME280;1889;50.058;8.688;2023-04-21T13:37:03;99722.36;;;19.86;50.21
3748;BME280;1889;50.058;8.688;2023-04-21T13:39:33;99722.36;;;19.86;50.21
3748;BME280;1889;50.058;8.688;2023-04-21T13:42:02;99719.66;;;19.71;49.18
3748;BME280;1889;50.058;8.688;2023-04-21T13:44:31;99722.16;;;20.10;48.49